Time;durP1;ratioP1;P1;durP2;ratioP2;P2;SDS_P1;SDS_P2;PMS_P1;PMS_P2;Temp;Humidity;BMP_temperature;BMP_pressure;BME280_temperature;BME280_humidity;BME280_pressure;Samples;Min_cycle;Max_cycle;Signal;HPM_P1;HPM_P2
2023/02/12 00:02:25;;;;;;;33.92;22.88;;;6.60;94.70;;;;;;5083912;28;20199;-85
2023/02/12 00:04:51;;;;;;;35.88;21.75;;;6.70;93.50;;;;;;5086877;28;20539;-82
2023/02/12 00:07:17;;;;;;;36.58;21.95;;;6.70;93.60;;;;;;5075441;28;20283;-83
2023/02/12 00:09:43;;;;;;;35.40;22.30;;;6.70;93.80;;;;;;5073192;28;20284;-80
2023/02/12 00:12:09;;;;;;;35.47;21.55;;;6.70;94.00;;;;;;5076047;28;20445;-81
2023/02/12 00:14:38;;;;;;;36.30;20.73;;;6.70;94.30;;;;;;5083639;28;20224;-79
2023/02/12 00:17:03;;;;;;;38.42;21.58;;;6.70;94.50;;;;;;5082870;28;20942;-79
2023/02/12 00:19:30;;;;;;;34.37;19.80;;;6.70;94.70;;;;;;5071995;28;20173;-83
2023/02/12 00:21:56;;;;;;;34.55;21.10;;;6.70;94.90;;;;;;5072422;28;20581;-83
2023/02/12 00:24:21;;;;;;;33.87;19.60;;;6.70;95.20;;;;;;5071698;28;20185;-79
2023/02/12 00:26:49;;;;;;;33.03;22.10;;;6.70;95.60;;;;;;5071906;28;20220;-81
2023/02/12 00:29:15;;;;;;;31.13;20.63;;;6.70;95.90;;;;;;5082712;28;20184;-79
2023/02/12 00:31:41;;;;;;;34.73;20.80;;;6.70;96.20;;;;;;5085884;28;20197;-80
2023/02/12 00:34:09;;;;;;;36.33;21.20;;;6.70;96.50;;;;;;5082280;28;20650;-83
2023/02/12 00:36:34;;;;;;;36.47;20.55;;;6.70;96.80;;;;;;5082317;28;20183;-79
2023/02/12 00:39:00;;;;;;;35.57;20.53;;;6.70;97.10;;;;;;5093061;28;20669;-83
2023/02/12 00:41:26;;;;;;;27.30;19.43;;;6.70;99.90;;;;;;5092247;28;20218;-80
2023/02/12 00:43:52;;;;;;;34.17;21.13;;;6.90;99.90;;;;;;5084730;28;20433;-82
2023/02/12 00:46:18;;;;;;;35.57;21.10;;;7.00;99.90;;;;;;5085082;28;20219;-81
2023/02/12 00:48:43;;;;;;;31.00;20.30;;;7.00;99.00;;;;;;5072945;28;20197;-80
2023/02/12 00:51:10;;;;;;;31.17;20.70;;;7.00;99.00;;;;;;5085682;28;20271;-83
2023/02/12 00:53:36;;;;;;;38.33;21.88;;;7.00;99.00;;;;;;5083196;28;20845;-79
2023/02/12 00:56:02;;;;;;;34.72;20.48;;;7.00;99.10;;;;;;5084079;28;20208;-80
2023/02/12 00:58:28;;;;;;;31.48;20.83;;;7.00;99.30;;;;;;5087447;28;20204;-83
2023/02/12 01:00:54;;;;;;;31.97;21.07;;;6.90;99.50;;;;;;5079039;28;20173;-83
2023/02/12 01:03:20;;;;;;;32.25;20.17;;;6.90;99.60;;;;;;5086404;28;20536;-82
2023/02/12 01:05:46;;;;;;;31.83;19.33;;;6.90;99.90;;;;;;5071726;28;20300;-81
2023/02/12 01:08:13;;;;;;;30.40;19.40;;;7.00;99.90;;;;;;5082963;28;20199;-79
2023/02/12 01:10:39;;;;;;;33.75;20.60;;;7.10;99.90;;;;;;5080988;28;20212;-80
2023/02/12 01:13:05;;;;;;;35.85;21.02;;;7.20;99.90;;;;;;5081892;28;20235;-80
2023/02/12 01:15:30;;;;;;;34.30;20.83;;;7.20;99.90;;;;;;5092922;28;20180;-78
2023/02/12 01:17:56;;;;;;;34.90;21.17;;;7.10;99.90;;;;;;5097356;28;20202;-78
2023/02/12 01:20:23;;;;;;;31.10;21.13;;;7.20;99.90;;;;;;5107679;28;20206;-81
2023/02/12 01:22:50;;;;;;;29.20;19.27;;;7.30;99.90;;;;;;5073291;28;20953;-79
2023/02/12 01:25:16;;;;;;;34.33;20.27;;;7.30;99.90;;;;;;5085851;28;20261;-85
2023/02/12 01:27:42;;;;;;;31.40;20.00;;;7.30;99.90;;;;;;5092418;28;20739;-83
2023/02/12 01:30:10;;;;;;;33.77;20.30;;;7.20;99.90;;;;;;5093775;28;20181;-80
2023/02/12 01:32:37;;;;;;;37.05;21.50;;;7.20;99.90;;;;;;5091606;28;20275;-80
2023/02/12 01:35:03;;;;;;;31.52;20.85;;;7.10;99.90;;;;;;5111696;28;20175;-79
2023/02/12 01:37:30;;;;;;;29.08;19.45;;;7.10;99.90;;;;;;5093278;28;20187;-82
2023/02/12 01:39:55;;;;;;;31.20;20.63;;;7.10;99.90;;;;;;5093360;28;20593;-80
2023/02/12 01:42:21;;;;;;;37.40;21.50;;;7.10;99.90;;;;;;5100925;28;20200;-79
2023/02/12 01:45:12;;;;;;;36.77;21.43;;;7.00;99.90;;;;;;5091466;28;20181;-84
2023/02/12 01:47:39;;;;;;;30.77;19.50;;;7.00;99.90;;;;;;5094887;28;20208;-80
2023/02/12 01:50:09;;;;;;;33.78;21.27;;;6.90;99.90;;;;;;5092200;28;20275;-79
2023/02/12 01:52:37;;;;;;;31.33;19.10;;;6.90;99.90;;;;;;5111340;28;20203;-83
2023/02/12 01:55:06;;;;;;;30.40;17.83;;;7.10;99.90;;;;;;5100753;28;20192;-79
2023/02/12 01:57:34;;;;;;;32.85;19.80;;;7.10;99.90;;;;;;5093455;28;20192;-82
2023/02/12 02:00:03;;;;;;;39.35;22.13;;;7.20;99.90;;;;;;5075486;28;20232;-82
2023/02/12 02:02:31;;;;;;;37.40;24.33;;;7.30;99.90;;;;;;5103430;28;20200;-81
2023/02/12 02:05:00;;;;;;;39.08;22.83;;;7.20;99.90;;;;;;5096631;28;20188;-78
2023/02/12 02:07:26;;;;;;;34.60;22.17;;;7.00;99.90;;;;;;5076972;28;20197;-79
2023/02/12 02:09:53;;;;;;;35.95;21.08;;;6.80;99.90;;;;;;5095589;28;20181;-79
2023/02/12 02:15:04;;;;;;;34.30;21.77;;;6.60;99.90;;;;;;5113587;28;20569;-79
2023/02/12 02:17:51;;;;;;;34.80;21.88;;;6.50;99.90;;;;;;5094432;28;20195;-84
2023/02/12 02:20:47;;;;;;;32.10;20.23;;;6.40;99.90;;;;;;5114580;28;20195;-83
2023/02/12 02:23:44;;;;;;;30.45;19.17;;;6.40;99.90;;;;;;5112372;28;20192;-83
2023/02/12 02:26:40;;;;;;;32.95;19.02;;;6.30;99.90;;;;;;5095481;28;20211;-83
2023/02/12 02:29:37;;;;;;;36.15;21.63;;;6.30;99.90;;;;;;5097717;28;20200;-79
2023/02/12 02:32:16;;;;;;;33.20;20.65;;;6.30;99.90;;;;;;5096580;28;20564;-79
2023/02/12 02:34:56;;;;;;;36.25;20.65;;;6.30;99.90;;;;;;5115113;28;20171;-80
2023/02/12 02:37:39;;;;;;;32.50;20.13;;;6.30;99.90;;;;;;5096522;28;20191;-79
2023/02/12 02:40:13;;;;;;;29.35;19.95;;;6.30;99.90;;;;;;5114832;28;20168;-83
2023/02/12 02:43:03;;;;;;;30.13;19.65;;;6.30;99.90;;;;;;5114671;28;20187;-79
2023/02/12 02:45:59;;;;;;;29.65;19.10;;;6.30;99.90;;;;;;5097869;28;20212;-80
2023/02/12 02:48:43;;;;;;;26.40;19.10;;;6.30;99.90;;;;;;5096895;28;20270;-78
2023/02/12 02:51:14;;;;;;;32.70;21.15;;;6.30;99.90;;;;;;5117440;28;20168;-80
2023/02/12 02:53:51;;;;;;;31.85;21.15;;;6.30;99.90;;;;;;5116748;28;20556;-82
2023/02/12 02:56:22;;;;;;;32.90;21.02;;;6.30;99.90;;;;;;5098643;28;20180;-82
2023/02/12 02:59:00;;;;;;;31.70;20.88;;;6.30;99.90;;;;;;5116618;28;20198;-82
2023/02/12 03:01:43;;;;;;;32.50;19.95;;;6.30;99.90;;;;;;5098311;28;20194;-79
2023/02/12 03:04:18;;;;;;;30.48;19.52;;;6.30;99.90;;;;;;5116627;28;20652;-80
2023/02/12 03:07:09;;;;;;;30.42;19.15;;;6.30;99.90;;;;;;5098445;28;20199;-79
2023/02/12 03:09:53;;;;;;;30.55;20.02;;;6.30;99.90;;;;;;5098761;28;20224;-79
2023/02/12 03:12:28;;;;;;;29.98;19.98;;;6.30;99.90;;;;;;5116794;28;20183;-80
2023/02/12 03:15:09;;;;;;;34.10;20.77;;;6.20;99.90;;;;;;5116355;28;20230;-79
2023/02/12 03:17:39;;;;;;;30.10;20.80;;;6.20;99.90;;;;;;5098061;28;20661;-79
2023/02/12 03:20:12;;;;;;;33.10;21.27;;;6.20;99.90;;;;;;5116509;28;20172;-82
2023/02/12 03:22:42;;;;;;;32.20;20.33;;;6.20;99.90;;;;;;5116130;28;20187;-83
2023/02/12 03:25:13;;;;;;;32.65;21.33;;;6.20;99.90;;;;;;5116477;28;20259;-81
2023/02/12 03:27:56;;;;;;;37.75;22.40;;;6.20;99.90;;;;;;5116076;28;20275;-80
2023/02/12 03:30:30;;;;;;;35.05;20.55;;;6.20;99.90;;;;;;5116481;28;20207;-82
2023/02/12 03:33:29;;;;;;;35.58;21.85;;;6.20;99.90;;;;;;5097727;28;20200;-82
2023/02/12 03:36:20;;;;;;;29.75;19.40;;;6.20;99.90;;;;;;5116315;28;20223;-80
2023/02/12 03:38:50;;;;;;;31.73;20.27;;;6.20;99.90;;;;;;5096671;28;20203;-82
2023/02/12 03:41:30;;;;;;;30.55;20.25;;;6.20;99.90;;;;;;5116402;28;20183;-82
2023/02/12 03:44:09;;;;;;;40.88;24.88;;;6.10;99.90;;;;;;5097394;28;20570;-79
2023/02/12 03:46:59;;;;;;;36.85;23.02;;;6.10;99.90;;;;;;5097550;28;20698;-80
2023/02/12 03:49:46;;;;;;;33.80;21.55;;;6.10;99.90;;;;;;5097535;28;20633;-82
2023/02/12 03:52:12;;;;;;;37.47;21.67;;;6.20;99.90;;;;;;5115597;28;20191;-80
2023/02/12 03:54:37;;;;;;;33.90;22.70;;;6.10;99.90;;;;;;5115633;28;20255;-82
2023/02/12 03:57:09;;;;;;;38.50;23.47;;;6.10;99.90;;;;;;5097192;28;20196;-79
2023/02/12 03:59:36;;;;;;;35.13;22.38;;;6.10;99.90;;;;;;5115571;28;20175;-81
2023/02/12 04:02:02;;;;;;;30.38;20.83;;;6.10;99.90;;;;;;5115273;28;20229;-79
2023/02/12 04:04:29;;;;;;;41.13;22.43;;;6.10;99.90;;;;;;5115451;28;20270;-81
2023/02/12 04:06:56;;;;;;;30.48;21.27;;;6.10;99.90;;;;;;5096804;28;20467;-80
2023/02/12 04:09:25;;;;;;;35.25;22.08;;;6.00;99.90;;;;;;5096970;28;20183;-82
2023/02/12 04:12:28;;;;;;;32.03;22.30;;;6.00;99.90;;;;;;5115222;28;20172;-81
2023/02/12 04:14:54;;;;;;;31.45;20.60;;;6.10;99.90;;;;;;5096733;28;20718;-81
2023/02/12 04:17:55;;;;;;;36.97;23.10;;;6.10;99.90;;;;;;5115072;28;20196;-82
2023/02/12 04:20:48;;;;;;;30.60;19.80;;;6.10;99.90;;;;;;5097081;28;20608;-82
2023/02/12 04:23:52;;;;;;;37.53;21.95;;;6.00;99.90;;;;;;5096700;28;20676;-82
2023/02/12 04:26:46;;;;;;;31.20;22.02;;;5.90;99.90;;;;;;5096962;28;20226;-82
2023/02/12 04:29:19;;;;;;;34.53;21.85;;;5.90;99.90;;;;;;5096660;28;20206;-83
2023/02/12 04:31:48;;;;;;;35.80;21.20;;;5.80;99.90;;;;;;5096922;28;20640;-79
2023/02/12 04:34:34;;;;;;;34.22;22.50;;;5.80;99.90;;;;;;5096574;28;20187;-81
2023/02/12 04:37:15;;;;;;;39.53;23.27;;;5.70;99.90;;;;;;5114810;28;20156;-79
2023/02/12 04:39:43;;;;;;;33.65;22.33;;;5.70;99.90;;;;;;5114792;28;20262;-80
2023/02/12 04:42:09;;;;;;;40.50;22.52;;;5.60;99.90;;;;;;5114665;28;20230;-82
2023/02/12 04:44:39;;;;;;;37.35;22.75;;;5.50;99.90;;;;;;5114479;28;20212;-81
2023/02/12 04:47:04;;;;;;;37.22;22.25;;;5.50;99.90;;;;;;5096161;28;20294;-79
2023/02/12 04:49:30;;;;;;;42.30;22.93;;;5.50;99.90;;;;;;5114399;28;20179;-80
2023/02/12 04:51:56;;;;;;;42.87;23.00;;;5.50;99.90;;;;;;5095838;28;20597;-82
2023/02/12 04:54:22;;;;;;;34.83;21.40;;;5.40;99.90;;;;;;5096204;28;20798;-80
2023/02/12 04:56:49;;;;;;;40.40;23.25;;;5.50;99.90;;;;;;5114373;28;20172;-80
2023/02/12 04:59:15;;;;;;;35.88;21.83;;;5.40;99.90;;;;;;5114570;28;20188;-78
2023/02/12 05:01:42;;;;;;;36.67;22.52;;;5.40;99.90;;;;;;5114352;28;20179;-78
2023/02/12 05:04:11;;;;;;;38.78;23.65;;;5.40;99.90;;;;;;5114363;28;20289;-82
2023/02/12 05:06:38;;;;;;;37.25;22.60;;;5.40;99.90;;;;;;5114210;28;20298;-83
2023/02/12 05:09:05;;;;;;;46.15;24.00;;;5.30;99.90;;;;;;5114226;28;20241;-79
2023/02/12 05:11:31;;;;;;;38.67;23.70;;;5.30;99.90;;;;;;5114231;28;20179;-79
2023/02/12 05:13:57;;;;;;;35.83;23.03;;;5.30;99.90;;;;;;5113936;28;20234;-83
2023/02/12 05:16:22;;;;;;;37.63;22.40;;;5.30;99.90;;;;;;5114300;28;20231;-79
2023/02/12 05:18:48;;;;;;;35.60;21.73;;;5.30;99.90;;;;;;5095812;28;20435;-79
2023/02/12 05:21:14;;;;;;;46.10;24.80;;;5.30;99.90;;;;;;5114814;28;20175;-78
2023/02/12 05:23:40;;;;;;;43.00;23.13;;;5.20;99.90;;;;;;5114016;28;20661;-83
2023/02/12 05:26:16;;;;;;;42.95;23.40;;;5.20;99.90;;;;;;5096102;28;20801;-82
2023/02/12 05:28:41;;;;;;;36.17;21.48;;;5.20;99.90;;;;;;5096334;28;20192;-81
2023/02/12 05:31:09;;;;;;;39.67;22.90;;;5.20;99.90;;;;;;5114666;28;20176;-82
2023/02/12 05:33:35;;;;;;;36.20;23.27;;;5.10;99.90;;;;;;5113979;28;20276;-79
2023/02/12 05:36:08;;;;;;;37.67;22.83;;;5.10;99.90;;;;;;5114497;28;20207;-80
2023/02/12 05:38:35;;;;;;;36.85;22.27;;;5.00;99.90;;;;;;5095702;28;20203;-83
2023/02/12 05:41:06;;;;;;;38.88;23.90;;;5.00;99.90;;;;;;5114607;28;20628;-83
2023/02/12 05:43:32;;;;;;;37.53;22.75;;;5.00;99.90;;;;;;5113944;28;20728;-79
2023/02/12 05:45:59;;;;;;;39.73;22.60;;;5.00;99.90;;;;;;5114341;28;20303;-79
2023/02/12 05:48:25;;;;;;;40.60;23.10;;;5.00;99.90;;;;;;5113873;28;20191;-82
2023/02/12 05:50:51;;;;;;;35.20;22.67;;;5.00;99.90;;;;;;5095786;28;20172;-83
2023/02/12 05:53:16;;;;;;;34.30;21.83;;;5.00;99.90;;;;;;5113789;28;20236;-81
2023/02/12 05:55:42;;;;;;;40.97;24.13;;;5.00;99.90;;;;;;5113868;28;20195;-82
2023/02/12 05:58:08;;;;;;;43.27;24.40;;;5.00;99.90;;;;;;5113839;28;20214;-83
2023/02/12 06:00:33;;;;;;;41.60;22.97;;;5.00;99.90;;;;;;5095684;28;20271;-79
2023/02/12 06:02:59;;;;;;;35.63;22.27;;;5.00;99.90;;;;;;5117186;28;20282;-83
2023/02/12 06:05:25;;;;;;;41.60;24.58;;;4.90;99.90;;;;;;5117998;28;20226;-79
2023/02/12 06:07:51;;;;;;;43.83;26.60;;;4.90;99.90;;;;;;5099462;28;20231;-82
2023/02/12 06:10:16;;;;;;;43.80;27.67;;;5.00;99.90;;;;;;5118038;28;20179;-82
2023/02/12 06:12:42;;;;;;;41.63;26.10;;;5.00;99.90;;;;;;5117736;28;20196;-79
2023/02/12 06:15:08;;;;;;;43.87;25.50;;;5.00;99.90;;;;;;5099468;28;20180;-83
2023/02/12 06:17:34;;;;;;;41.50;24.00;;;5.00;99.90;;;;;;5099119;28;20194;-82
2023/02/12 06:20:00;;;;;;;40.13;24.13;;;5.00;99.90;;;;;;5099280;28;20523;-78
2023/02/12 06:22:27;;;;;;;43.60;25.23;;;5.00;99.90;;;;;;5099160;28;20301;-79
2023/02/12 06:24:53;;;;;;;43.88;24.45;;;5.00;99.90;;;;;;5099188;28;20183;-80
2023/02/12 06:27:18;;;;;;;41.03;24.77;;;5.00;99.90;;;;;;5117174;28;20211;-79
2023/02/12 06:29:44;;;;;;;37.17;24.30;;;5.00;99.90;;;;;;5099032;28;20176;-82
2023/02/12 06:32:12;;;;;;;39.57;23.70;;;5.00;99.90;;;;;;5117249;28;20199;-82
2023/02/12 06:34:38;;;;;;;36.95;24.13;;;5.00;99.90;;;;;;5117369;28;20252;-82
2023/02/12 06:37:04;;;;;;;43.35;26.65;;;5.00;99.90;;;;;;5113746;28;20243;-78
2023/02/12 06:39:30;;;;;;;41.17;25.15;;;5.00;99.90;;;;;;5097367;28;20237;-82
2023/02/12 06:41:55;;;;;;;43.80;26.90;;;5.10;99.90;;;;;;5115170;28;20811;-79
2023/02/12 06:44:21;;;;;;;47.60;26.30;;;5.10;99.90;;;;;;5116533;28;20184;-82
2023/02/12 06:46:47;;;;;;;51.30;26.63;;;5.10;99.90;;;;;;5097475;28;20685;-79
2023/02/12 06:49:13;;;;;;;44.10;27.83;;;5.10;99.90;;;;;;5098070;28;20585;-78
2023/02/12 06:51:40;;;;;;;48.72;29.10;;;5.10;99.90;;;;;;5115902;28;20592;-79
2023/02/12 06:54:12;;;;;;;55.75;33.55;;;5.00;99.90;;;;;;5116255;28;20659;-83
2023/02/12 06:56:37;;;;;;;73.43;37.97;;;5.00;99.90;;;;;;5096083;28;20214;-79
2023/02/12 06:59:03;;;;;;;62.70;35.93;;;5.00;99.90;;;;;;5116096;28;20227;-79
2023/02/12 07:01:30;;;;;;;59.40;32.20;;;5.10;99.90;;;;;;5115950;28;20176;-80
2023/02/12 07:04:03;;;;;;;49.50;28.48;;;5.10;99.90;;;;;;5097553;28;20191;-79
2023/02/12 07:06:30;;;;;;;39.92;24.48;;;5.20;99.90;;;;;;5096908;28;20261;-78
2023/02/12 07:08:57;;;;;;;45.83;26.17;;;5.30;99.90;;;;;;5114463;28;20203;-84
2023/02/12 07:11:28;;;;;;;46.95;26.67;;;5.40;99.90;;;;;;5116434;28;20548;-82
2023/02/12 07:13:53;;;;;;;41.13;25.08;;;5.50;99.90;;;;;;5114566;28;20220;-82
2023/02/12 07:16:19;;;;;;;40.00;23.77;;;5.60;99.90;;;;;;5115992;28;20191;-79
2023/02/12 07:18:45;;;;;;;38.80;25.73;;;5.60;99.90;;;;;;5112618;28;20200;-79
2023/02/12 07:21:13;;;;;;;43.45;24.60;;;5.80;99.90;;;;;;5116418;28;20640;-83
2023/02/12 07:23:39;;;;;;;41.13;24.75;;;5.90;99.90;;;;;;5115309;28;20673;-82
2023/02/12 07:26:07;;;;;;;60.43;40.00;;;6.00;99.90;;;;;;5116184;28;20214;-82
2023/02/12 07:28:33;;;;;;;58.35;36.47;;;6.10;99.90;;;;;;5112198;28;20428;-79
2023/02/12 07:31:06;;;;;;;55.93;33.37;;;6.10;99.90;;;;;;5115964;28;20523;-82
2023/02/12 07:33:32;;;;;;;47.22;31.50;;;6.20;99.90;;;;;;5096571;28;20428;-78
2023/02/12 07:36:00;;;;;;;43.33;27.87;;;6.20;99.90;;;;;;5097285;28;20194;-79
2023/02/12 07:38:25;;;;;;;41.92;28.92;;;6.30;99.90;;;;;;5114983;28;20215;-82
2023/02/12 07:40:51;;;;;;;41.93;26.60;;;6.30;99.90;;;;;;5115588;28;20180;-79
2023/02/12 07:43:17;;;;;;;47.30;28.27;;;6.30;99.90;;;;;;5096861;28;20531;-82
2023/02/12 07:45:43;;;;;;;49.93;30.70;;;6.30;99.90;;;;;;5116185;28;20203;-79
2023/02/12 07:48:08;;;;;;;42.00;27.90;;;6.40;99.90;;;;;;5114903;28;20421;-79
2023/02/12 07:50:34;;;;;;;47.00;28.17;;;6.40;99.90;;;;;;5097499;28;20180;-82
2023/02/12 07:53:00;;;;;;;42.63;29.17;;;6.50;99.90;;;;;;5115612;28;20289;-79
2023/02/12 07:55:25;;;;;;;45.77;28.63;;;6.60;99.90;;;;;;5097316;28;20187;-83
2023/02/12 07:57:51;;;;;;;44.17;28.00;;;6.80;99.90;;;;;;5115553;28;20203;-83
2023/02/12 08:00:17;;;;;;;43.90;28.17;;;7.00;99.90;;;;;;5115903;28;20293;-82
2023/02/12 08:02:43;;;;;;;40.15;27.77;;;7.00;99.90;;;;;;5115323;28;20223;-82
2023/02/12 08:05:08;;;;;;;41.60;27.87;;;7.10;99.90;;;;;;5115548;28;20280;-80
2023/02/12 08:07:34;;;;;;;40.87;27.23;;;7.10;99.90;;;;;;5096949;28;20683;-82
2023/02/12 08:10:00;;;;;;;44.43;29.17;;;7.20;99.90;;;;;;5097128;28;20271;-82
2023/02/12 08:12:25;;;;;;;48.77;29.63;;;7.20;99.90;;;;;;5115109;28;20199;-78
2023/02/12 08:14:51;;;;;;;50.67;29.10;;;7.20;99.90;;;;;;5115164;28;20230;-79
2023/02/12 08:17:17;;;;;;;55.40;29.33;;;7.30;99.90;;;;;;5115122;28;20199;-81
2023/02/12 08:19:42;;;;;;;48.90;30.23;;;7.30;99.90;;;;;;5115299;28;20180;-82
2023/02/12 08:22:08;;;;;;;44.90;28.80;;;7.30;99.90;;;;;;5096883;28;20202;-79
2023/02/12 08:24:33;;;;;;;50.07;29.80;;;7.30;99.90;;;;;;5114522;28;20172;-82
2023/02/12 08:26:59;;;;;;;52.57;30.80;;;7.30;99.90;;;;;;5114671;28;20286;-79
2023/02/12 08:29:28;;;;;;;63.47;42.77;;;7.30;99.90;;;;;;5097058;28;20180;-79
2023/02/12 08:31:59;;;;;;;56.83;36.25;;;7.30;99.90;;;;;;5114893;28;20172;-79
2023/02/12 08:34:30;;;;;;;46.70;30.02;;;7.40;99.90;;;;;;5115070;28;20263;-82
2023/02/12 08:36:57;;;;;;;53.50;30.40;;;7.30;99.90;;;;;;5115073;28;20168;-83
2023/02/12 08:39:24;;;;;;;58.60;34.33;;;7.30;99.90;;;;;;5114745;28;20205;-79
2023/02/12 08:41:50;;;;;;;46.03;30.27;;;7.40;99.90;;;;;;5114884;28;20171;-83
2023/02/12 08:44:17;;;;;;;48.83;30.30;;;7.40;99.90;;;;;;5096700;28;20195;-83
2023/02/12 08:46:45;;;;;;;49.00;29.60;;;7.40;99.90;;;;;;5096248;28;20980;-79
2023/02/12 08:49:17;;;;;;;50.55;30.70;;;7.40;99.90;;;;;;5096599;28;20182;-82
2023/02/12 08:51:47;;;;;;;44.65;28.63;;;7.40;99.90;;;;;;5096458;28;20171;-83
2023/02/12 08:54:22;;;;;;;47.63;28.48;;;7.40;99.90;;;;;;5114558;28;20183;-78
2023/02/12 08:56:49;;;;;;;45.78;27.45;;;7.40;99.90;;;;;;5114782;28;20171;-82
2023/02/12 08:59:16;;;;;;;46.85;28.65;;;7.50;99.90;;;;;;5114623;28;20180;-83
2023/02/12 09:01:42;;;;;;;44.83;27.38;;;7.40;99.90;;;;;;5114274;28;20172;-81
2023/02/12 09:04:21;;;;;;;42.78;29.85;;;7.50;99.90;;;;;;5114396;28;20536;-79
2023/02/12 09:06:48;;;;;;;51.15;32.45;;;7.40;99.90;;;;;;5113961;28;20644;-79
2023/02/12 09:09:14;;;;;;;50.67;30.25;;;7.40;99.90;;;;;;5114382;28;20196;-81
2023/02/12 09:11:40;;;;;;;40.25;27.35;;;7.50;99.90;;;;;;5095953;28;20694;-81
2023/02/12 09:14:10;;;;;;;45.72;29.30;;;7.60;99.90;;;;;;5114142;28;20280;-79
2023/02/12 09:16:39;;;;;;;42.40;28.08;;;7.50;99.90;;;;;;5095946;28;20644;-82
2023/02/12 09:19:04;;;;;;;46.72;28.83;;;7.60;99.90;;;;;;5114091;28;20267;-79
2023/02/12 09:21:30;;;;;;;43.23;26.80;;;7.50;99.90;;;;;;5114190;28;20199;-82
2023/02/12 09:23:56;;;;;;;42.55;28.92;;;7.50;99.90;;;;;;5113966;28;20191;-79
2023/02/12 09:26:24;;;;;;;44.13;28.30;;;7.60;99.90;;;;;;5114110;28;20214;-80
2023/02/12 09:28:51;;;;;;;42.17;28.05;;;7.70;99.90;;;;;;5114116;28;20596;-79
2023/02/12 09:31:19;;;;;;;46.35;29.73;;;7.80;99.90;;;;;;5096096;28;20180;-78
2023/02/12 09:33:45;;;;;;;45.72;30.65;;;7.80;99.90;;;;;;5113911;28;20232;-82
2023/02/12 09:36:13;;;;;;;43.53;29.95;;;8.00;99.90;;;;;;5115051;28;20214;-79
2023/02/12 09:38:40;;;;;;;45.38;32.75;;;8.10;99.90;;;;;;5118208;28;20290;-79
2023/02/12 09:41:23;;;;;;;52.47;34.78;;;8.20;99.90;;;;;;5118120;28;20172;-82
2023/02/12 09:44:21;;;;;;;45.53;30.83;;;8.40;99.90;;;;;;5099851;28;20219;-82
2023/02/12 09:47:19;;;;;;;47.03;28.92;;;8.50;99.90;;;;;;5118002;28;20711;-83
2023/02/12 09:49:58;;;;;;;43.85;29.85;;;8.80;99.90;;;;;;5118108;28;20225;-79
2023/02/12 09:52:27;;;;;;;46.83;29.17;;;9.20;99.90;;;;;;5099642;28;20298;-82
2023/02/12 09:54:53;;;;;;;40.72;27.02;;;9.50;99.90;;;;;;5099749;28;20183;-82
2023/02/12 09:57:30;;;;;;;38.58;24.17;;;10.10;99.90;;;;;;5099533;28;20234;-79
2023/02/12 10:00:06;;;;;;;38.42;26.58;;;11.20;99.90;;;;;;5118192;28;20167;-82
2023/02/12 10:02:34;;;;;;;34.30;24.10;;;12.70;99.90;;;;;;5099369;28;20192;-82
2023/02/12 10:04:59;;;;;;;37.30;27.57;;;14.10;99.90;;;;;;5118242;28;20686;-81
2023/02/12 10:07:28;;;;;;;36.10;25.90;;;15.20;99.90;;;;;;5117858;28;20467;-83
2023/02/12 10:10:18;;;;;;;37.33;26.67;;;16.00;99.90;;;;;;5099489;28;20237;-81
2023/02/12 10:13:04;;;;;;;34.53;23.93;;;16.10;99.90;;;;;;5117465;28;20442;-80
2023/02/12 10:15:43;;;;;;;39.23;25.77;;;15.70;99.30;;;;;;5117863;28;20427;-82
2023/02/12 10:18:15;;;;;;;33.43;25.00;;;15.40;99.00;;;;;;5117486;28;20519;-79
2023/02/12 10:20:49;;;;;;;39.80;27.80;;;15.00;98.70;;;;;;5117910;28;20431;-80
2023/02/12 10:23:56;;;;;;;39.13;25.13;;;14.40;98.80;;;;;;5099037;28;20525;-82
2023/02/12 10:26:36;;;;;;;32.40;24.43;;;13.80;98.60;;;;;;5065110;28;20463;-81
2023/02/12 10:29:15;;;;;;;42.23;27.73;;;13.30;99.40;;;;;;5117281;28;20407;-80
2023/02/12 10:31:44;;;;;;;35.57;25.73;;;12.80;99.90;;;;;;5117381;28;20392;-79
2023/02/12 10:34:23;;;;;;;38.85;26.85;;;12.40;99.90;;;;;;5117274;28;20404;-82
2023/02/12 10:36:53;;;;;;;41.42;27.20;;;12.20;99.90;;;;;;5098965;28;20529;-82
2023/02/12 10:39:23;;;;;;;37.67;25.48;;;11.90;99.90;;;;;;5117316;28;20729;-80
2023/02/12 10:42:10;;;;;;;40.03;26.85;;;11.70;99.90;;;;;;5117014;28;20179;-79
2023/02/12 10:44:36;;;;;;;38.92;27.00;;;11.50;99.90;;;;;;5098655;28;20257;-79
2023/02/12 10:47:02;;;;;;;35.93;26.50;;;11.30;99.90;;;;;;5116827;28;20239;-79
2023/02/12 10:49:31;;;;;;;47.20;28.43;;;11.10;99.90;;;;;;5115752;28;20191;-78
2023/02/12 10:51:59;;;;;;;42.47;29.35;;;11.00;99.90;;;;;;5098551;28;20182;-79
2023/02/12 10:54:47;;;;;;;39.60;28.73;;;10.90;99.90;;;;;;5116901;28;20176;-79
2023/02/12 10:57:22;;;;;;;44.25;29.90;;;10.90;99.90;;;;;;5116571;28;20727;-82
2023/02/12 10:59:50;;;;;;;40.13;26.17;;;10.80;99.90;;;;;;5116832;28;20300;-83
2023/02/12 11:02:24;;;;;;;40.33;28.85;;;10.80;99.90;;;;;;5116623;28;20187;-82
2023/02/12 11:04:50;;;;;;;43.40;29.60;;;10.70;99.90;;;;;;5098465;28;20270;-79
2023/02/12 11:07:17;;;;;;;40.72;28.13;;;10.60;99.90;;;;;;5098131;28;20211;-85
2023/02/12 11:09:45;;;;;;;45.67;30.38;;;10.60;99.90;;;;;;5116768;28;20183;-84
2023/02/12 11:12:34;;;;;;;45.90;31.48;;;10.60;99.90;;;;;;5116528;28;20218;-82
2023/02/12 11:15:05;;;;;;;41.85;30.02;;;10.50;99.90;;;;;;5075996;28;20280;-79
2023/02/12 11:17:39;;;;;;;46.28;29.30;;;10.60;99.90;;;;;;5075758;28;20192;-79
2023/02/12 11:20:17;;;;;;;43.60;29.33;;;10.60;99.90;;;;;;5075975;28;20530;-79
2023/02/12 11:23:00;;;;;;;46.55;29.85;;;10.70;99.90;;;;;;5075481;28;20189;-80
2023/02/12 11:25:30;;;;;;;39.55;27.63;;;10.80;99.90;;;;;;5075832;28;20192;-79
2023/02/12 11:28:15;;;;;;;55.13;32.35;;;10.90;99.90;;;;;;5075539;28;20193;-79
2023/02/12 11:30:51;;;;;;;43.50;29.63;;;10.80;99.90;;;;;;5074421;28;20181;-82
2023/02/12 11:33:27;;;;;;;40.13;26.38;;;10.90;99.90;;;;;;5075323;28;20185;-79
2023/02/12 11:36:23;;;;;;;40.67;28.75;;;11.00;99.90;;;;;;5074278;28;20246;-81
2023/02/12 11:38:53;;;;;;;42.60;26.52;;;11.20;99.90;;;;;;5070719;28;20217;-82
2023/02/12 11:41:39;;;;;;;44.88;29.42;;;11.30;99.90;;;;;;5075315;28;20260;-82
2023/02/12 11:44:11;;;;;;;44.28;30.33;;;11.40;99.90;;;;;;5075147;28;20211;-82
2023/02/12 11:46:37;;;;;;;42.90;27.05;;;11.50;99.90;;;;;;5073805;28;20235;-79
2023/02/12 11:49:04;;;;;;;35.63;25.02;;;11.60;99.90;;;;;;5075026;28;20200;-81
2023/02/12 11:51:31;;;;;;;38.33;27.92;;;11.70;99.90;;;;;;5073971;28;20212;-82
2023/02/12 11:54:01;;;;;;;49.95;31.10;;;11.70;99.90;;;;;;5074873;28;20217;-79
2023/02/12 11:56:42;;;;;;;40.90;27.35;;;11.80;99.90;;;;;;5073706;28;20173;-79
2023/02/12 11:59:37;;;;;;;43.90;30.50;;;11.90;99.90;;;;;;5073505;28;20169;-82
2023/02/12 12:02:27;;;;;;;36.20;25.53;;;12.10;99.90;;;;;;5074842;28;20563;-79
2023/02/12 12:05:02;;;;;;;40.85;28.10;;;12.30;99.90;;;;;;5073537;28;20429;-80
2023/02/12 12:07:35;;;;;;;41.70;27.00;;;12.40;99.90;;;;;;5074599;28;20216;-82
2023/02/12 12:10:14;;;;;;;37.10;26.37;;;12.50;99.90;;;;;;5075099;28;20922;-82
2023/02/12 12:12:42;;;;;;;34.97;24.17;;;12.50;99.90;;;;;;5075701;28;20434;-82
2023/02/12 12:21:29;;;;;;;30.37;20.43;;;12.60;99.90;;;;;;5115780;28;20473;-79
2023/02/12 12:24:18;;;;;;;35.80;21.77;;;12.60;99.90;;;;;;5115099;28;20438;-82
2023/02/12 12:26:50;;;;;;;35.23;21.30;;;12.50;99.90;;;;;;5096650;28;20471;-82
2023/02/12 12:29:41;;;;;;;30.60;21.60;;;12.50;99.90;;;;;;5115192;28;20905;-82
2023/02/12 12:32:11;;;;;;;31.10;19.43;;;12.60;99.90;;;;;;5096691;28;20481;-80
2023/02/12 12:34:36;;;;;;;18.60;12.70;;;12.60;99.90;;;;;;5115052;28;20515;-79
2023/02/12 12:37:28;;;;;;;17.93;12.97;;;12.60;99.50;;;;;;5096563;28;20535;-80
2023/02/12 12:39:56;;;;;;;16.73;13.05;;;12.70;99.10;;;;;;5096753;28;20643;-79
2023/02/12 12:42:53;;;;;;;28.40;17.70;;;12.70;99.00;;;;;;5096354;28;20207;-81
2023/02/12 12:45:21;;;;;;;36.53;22.07;;;12.70;98.80;;;;;;5096529;28;20439;-78
2023/02/12 12:48:12;;;;;;;32.60;19.10;;;12.70;98.70;;;;;;5114621;28;20442;-82
2023/02/12 12:50:58;;;;;;;26.77;17.67;;;12.70;98.50;;;;;;5114878;28;20420;-79
2023/02/12 12:53:27;;;;;;;23.10;16.90;;;12.60;98.50;;;;;;5114417;28;20832;-79
2023/02/12 12:56:03;;;;;;;25.75;17.38;;;12.50;98.40;;;;;;5096368;28;20428;-79
2023/02/12 12:59:19;;;;;;;24.70;16.47;;;12.40;98.40;;;;;;5114379;28;20235;-82
2023/02/12 13:02:10;;;;;;;23.00;17.03;;;12.30;98.50;;;;;;5071054;28;20909;-82
2023/02/12 13:05:07;;;;;;;25.73;18.97;;;12.30;98.50;;;;;;5095992;28;20427;-79
2023/02/12 13:08:09;;;;;;;24.65;17.35;;;12.20;98.40;;;;;;5114458;28;20487;-82
2023/02/12 13:10:47;;;;;;;28.85;17.98;;;12.10;98.70;;;;;;5114130;28;20183;-82